sensor_id;sensor_type;location;lat;lon;timestamp;P1;durP1;ratioP1;P2;durP2;ratioP2
82495;SDS011;72133;42.522;24.800;2024-01-11T00:01:44;21.77;;;13.82;;
82495;SDS011;72133;42.522;24.800;2024-01-11T00:04:10;24.08;;;15.75;;
82495;SDS011;72133;42.522;24.800;2024-01-11T00:06:39;23.08;;;14.75;;
82495;SDS011;72133;42.522;24.800;2024-01-11T00:09:07;24.08;;;14.20;;
82495;SDS011;72133;42.522;24.800;2024-01-11T00:11:33;21.40;;;14.00;;
82495;SDS011;72133;42.522;24.800;2024-01-11T00:13:58;23.88;;;14.68;;
82495;SDS011;72133;42.522;24.800;2024-01-11T00:16:24;23.25;;;14.70;;
82495;SDS011;72133;42.522;24.800;2024-01-11T00:18:49;26.70;;;15.13;;
82495;SDS011;72133;42.522;24.800;2024-01-11T00:21:15;23.30;;;13.98;;
82495;SDS011;72133;42.522;24.800;2024-01-11T00:23:41;22.73;;;14.75;;
82495;SDS011;72133;42.522;24.800;2024-01-11T00:26:06;21.92;;;15.18;;
82495;SDS011;72133;42.522;24.800;2024-01-11T00:28:32;21.23;;;13.63;;
82495;SDS011;72133;42.522;24.800;2024-01-11T00:30:57;20.35;;;13.63;;
82495;SDS011;72133;42.522;24.800;2024-01-11T00:33:23;24.35;;;13.50;;
82495;SDS011;72133;42.522;24.800;2024-01-11T00:35:48;22.15;;;14.02;;
82495;SDS011;72133;42.522;24.800;2024-01-11T00:38:14;23.58;;;14.68;;
82495;SDS011;72133;42.522;24.800;2024-01-11T00:40:40;25.55;;;14.18;;
82495;SDS011;72133;42.522;24.800;2024-01-11T00:43:05;21.25;;;13.77;;
82495;SDS011;72133;42.522;24.800;2024-01-11T00:45:31;21.13;;;14.20;;
82495;SDS011;72133;42.522;24.800;2024-01-11T00:47:56;24.33;;;15.43;;
82495;SDS011;72133;42.522;24.800;2024-01-11T00:50:22;24.23;;;15.07;;
82495;SDS011;72133;42.522;24.800;2024-01-11T00:52:48;22.67;;;14.32;;
82495;SDS011;72133;42.522;24.800;2024-01-11T00:55:13;21.02;;;13.80;;
82495;SDS011;72133;42.522;24.800;2024-01-11T00:57:39;20.05;;;13.55;;
82495;SDS011;72133;42.522;24.800;2024-01-11T01:00:05;20.38;;;13.07;;
82495;SDS011;72133;42.522;24.800;2024-01-11T01:02:31;24.95;;;14.45;;
82495;SDS011;72133;42.522;24.800;2024-01-11T01:04:56;21.58;;;14.32;;
82495;SDS011;72133;42.522;24.800;2024-01-11T01:07:22;24.92;;;15.35;;
82495;SDS011;72133;42.522;24.800;2024-01-11T01:09:48;23.15;;;14.45;;
82495;SDS011;72133;42.522;24.800;2024-01-11T01:12:13;22.02;;;14.65;;
82495;SDS011;72133;42.522;24.800;2024-01-11T01:14:39;23.05;;;13.90;;
82495;SDS011;72133;42.522;24.800;2024-01-11T01:17:04;19.17;;;12.75;;
82495;SDS011;72133;42.522;24.800;2024-01-11T01:19:30;21.98;;;13.48;;
82495;SDS011;72133;42.522;24.800;2024-01-11T01:21:56;22.10;;;14.50;;
82495;SDS011;72133;42.522;24.800;2024-01-11T01:24:21;20.83;;;13.80;;
82495;SDS011;72133;42.522;24.800;2024-01-11T01:26:47;23.27;;;15.10;;
82495;SDS011;72133;42.522;24.800;2024-01-11T01:29:12;22.50;;;14.40;;
82495;SDS011;72133;42.522;24.800;2024-01-11T01:31:39;22.98;;;14.00;;
82495;SDS011;72133;42.522;24.800;2024-01-11T01:34:04;24.52;;;15.82;;
82495;SDS011;72133;42.522;24.800;2024-01-11T01:36:30;21.40;;;14.30;;
82495;SDS011;72133;42.522;24.800;2024-01-11T01:38:56;21.38;;;15.00;;
82495;SDS011;72133;42.522;24.800;2024-01-11T01:41:21;22.13;;;16.23;;
82495;SDS011;72133;42.522;24.800;2024-01-11T01:43:47;24.17;;;14.63;;
82495;SDS011;72133;42.522;24.800;2024-01-11T01:46:12;22.42;;;15.27;;
82495;SDS011;72133;42.522;24.800;2024-01-11T01:48:42;21.95;;;14.40;;
82495;SDS011;72133;42.522;24.800;2024-01-11T01:51:07;29.55;;;16.63;;
82495;SDS011;72133;42.522;24.800;2024-01-11T01:53:33;20.98;;;14.18;;
82495;SDS011;72133;42.522;24.800;2024-01-11T01:55:59;20.70;;;13.70;;
82495;SDS011;72133;42.522;24.800;2024-01-11T01:58:24;22.48;;;13.15;;
82495;SDS011;72133;42.522;24.800;2024-01-11T02:00:50;19.95;;;12.77;;
82495;SDS011;72133;42.522;24.800;2024-01-11T02:03:17;17.63;;;12.45;;
82495;SDS011;72133;42.522;24.800;2024-01-11T02:05:42;17.88;;;12.23;;
82495;SDS011;72133;42.522;24.800;2024-01-11T02:08:08;20.50;;;13.82;;
82495;SDS011;72133;42.522;24.800;2024-01-11T02:10:37;23.58;;;13.77;;
82495;SDS011;72133;42.522;24.800;2024-01-11T02:13:04;21.73;;;13.80;;
82495;SDS011;72133;42.522;24.800;2024-01-11T02:15:30;19.80;;;12.77;;
82495;SDS011;72133;42.522;24.800;2024-01-11T02:17:55;20.77;;;13.30;;
82495;SDS011;72133;42.522;24.800;2024-01-11T02:20:21;18.52;;;12.82;;
82495;SDS011;72133;42.522;24.800;2024-01-11T02:22:47;19.42;;;12.15;;
82495;SDS011;72133;42.522;24.800;2024-01-11T02:25:18;19.25;;;12.57;;
82495;SDS011;72133;42.522;24.800;2024-01-11T02:27:44;21.73;;;13.60;;
82495;SDS011;72133;42.522;24.800;2024-01-11T02:30:11;20.75;;;13.43;;
82495;SDS011;72133;42.522;24.800;2024-01-11T02:32:37;23.42;;;14.65;;
82495;SDS011;72133;42.522;24.800;2024-01-11T02:35:02;23.05;;;13.85;;
82495;SDS011;72133;42.522;24.800;2024-01-11T02:37:29;22.45;;;13.75;;
82495;SDS011;72133;42.522;24.800;2024-01-11T02:39:55;20.70;;;13.80;;
82495;SDS011;72133;42.522;24.800;2024-01-11T02:42:20;22.10;;;14.68;;
82495;SDS011;72133;42.522;24.800;2024-01-11T02:44:46;21.27;;;13.25;;
82495;SDS011;72133;42.522;24.800;2024-01-11T02:47:12;19.35;;;12.70;;
82495;SDS011;72133;42.522;24.800;2024-01-11T02:49:38;22.95;;;14.70;;
82495;SDS011;72133;42.522;24.800;2024-01-11T02:52:04;21.75;;;13.98;;
82495;SDS011;72133;42.522;24.800;2024-01-11T02:54:30;19.30;;;12.63;;
82495;SDS011;72133;42.522;24.800;2024-01-11T02:56:55;21.35;;;14.15;;
82495;SDS011;72133;42.522;24.800;2024-01-11T02:59:22;21.40;;;13.57;;
82495;SDS011;72133;42.522;24.800;2024-01-11T03:01:49;22.80;;;14.15;;
82495;SDS011;72133;42.522;24.800;2024-01-11T03:04:15;21.75;;;14.57;;
82495;SDS011;72133;42.522;24.800;2024-01-11T03:06:40;23.05;;;14.70;;
82495;SDS011;72133;42.522;24.800;2024-01-11T03:09:06;22.15;;;14.80;;
82495;SDS011;72133;42.522;24.800;2024-01-11T03:11:32;21.00;;;14.20;;
82495;SDS011;72133;42.522;24.800;2024-01-11T03:13:57;27.25;;;14.48;;
82495;SDS011;72133;42.522;24.800;2024-01-11T03:16:23;21.17;;;14.18;;
82495;SDS011;72133;42.522;24.800;2024-01-11T03:18:48;20.98;;;13.43;;
82495;SDS011;72133;42.522;24.800;2024-01-11T03:21:14;21.55;;;15.18;;
82495;SDS011;72133;42.522;24.800;2024-01-11T03:23:40;19.98;;;14.20;;
82495;SDS011;72133;42.522;24.800;2024-01-11T03:26:12;21.95;;;14.80;;
82495;SDS011;72133;42.522;24.800;2024-01-11T03:28:40;24.67;;;15.18;;
82495;SDS011;72133;42.522;24.800;2024-01-11T03:31:06;23.95;;;14.35;;
82495;SDS011;72133;42.522;24.800;2024-01-11T03:33:33;23.35;;;13.75;;
82495;SDS011;72133;42.522;24.800;2024-01-11T03:35:59;21.50;;;13.80;;
82495;SDS011;72133;42.522;24.800;2024-01-11T03:38:25;21.13;;;13.30;;
82495;SDS011;72133;42.522;24.800;2024-01-11T03:40:50;21.30;;;14.05;;
82495;SDS011;72133;42.522;24.800;2024-01-11T03:43:17;19.95;;;14.23;;
82495;SDS011;72133;42.522;24.800;2024-01-11T03:45:43;21.13;;;14.52;;
82495;SDS011;72133;42.522;24.800;2024-01-11T03:48:08;22.17;;;14.88;;
82495;SDS011;72133;42.522;24.800;2024-01-11T03:50:34;21.20;;;15.00;;
82495;SDS011;72133;42.522;24.800;2024-01-11T03:53:00;21.33;;;14.60;;
82495;SDS011;72133;42.522;24.800;2024-01-11T03:55:25;19.60;;;12.05;;
82495;SDS011;72133;42.522;24.800;2024-01-11T03:57:51;22.70;;;14.00;;
82495;SDS011;72133;42.522;24.800;2024-01-11T04:00:17;20.38;;;12.82;;
82495;SDS011;72133;42.522;24.800;2024-01-11T04:02:43;19.48;;;13.07;;
82495;SDS011;72133;42.522;24.800;2024-01-11T04:05:09;20.08;;;13.02;;
82495;SDS011;72133;42.522;24.800;2024-01-11T04:07:35;22.75;;;13.85;;
82495;SDS011;72133;42.522;24.800;2024-01-11T04:10:00;19.42;;;12.07;;
82495;SDS011;72133;42.522;24.800;2024-01-11T04:12:26;22.40;;;14.27;;
82495;SDS011;72133;42.522;24.800;2024-01-11T04:14:51;19.83;;;12.27;;
82495;SDS011;72133;42.522;24.800;2024-01-11T04:17:17;19.90;;;13.30;;
82495;SDS011;72133;42.522;24.800;2024-01-11T04:19:43;19.63;;;12.57;;
82495;SDS011;72133;42.522;24.800;2024-01-11T04:22:08;18.27;;;12.25;;
82495;SDS011;72133;42.522;24.800;2024-01-11T04:24:35;19.05;;;12.70;;
82495;SDS011;72133;42.522;24.800;2024-01-11T04:27:01;17.98;;;12.40;;
82495;SDS011;72133;42.522;24.800;2024-01-11T04:29:26;19.63;;;13.25;;
82495;SDS011;72133;42.522;24.800;2024-01-11T04:31:52;19.15;;;12.23;;
82495;SDS011;72133;42.522;24.800;2024-01-11T04:34:18;18.83;;;12.02;;
82495;SDS011;72133;42.522;24.800;2024-01-11T04:36:44;18.98;;;12.15;;
82495;SDS011;72133;42.522;24.800;2024-01-11T04:39:10;17.85;;;12.48;;
82495;SDS011;72133;42.522;24.800;2024-01-11T04:41:36;22.67;;;12.30;;
82495;SDS011;72133;42.522;24.800;2024-01-11T04:44:03;19.23;;;12.73;;
82495;SDS011;72133;42.522;24.800;2024-01-11T04:46:29;16.83;;;12.00;;
82495;SDS011;72133;42.522;24.800;2024-01-11T04:48:54;19.30;;;12.10;;
82495;SDS011;72133;42.522;24.800;2024-01-11T04:51:20;18.10;;;12.00;;
82495;SDS011;72133;42.522;24.800;2024-01-11T04:53:46;18.38;;;12.27;;
82495;SDS011;72133;42.522;24.800;2024-01-11T04:56:13;19.98;;;12.68;;
82495;SDS011;72133;42.522;24.800;2024-01-11T04:58:40;21.55;;;14.00;;
82495;SDS011;72133;42.522;24.800;2024-01-11T05:01:12;18.95;;;12.40;;
82495;SDS011;72133;42.522;24.800;2024-01-11T05:03:45;19.45;;;11.85;;
82495;SDS011;72133;42.522;24.800;2024-01-11T05:06:18;20.17;;;11.63;;
82495;SDS011;72133;42.522;24.800;2024-01-11T05:08:45;18.90;;;12.40;;
82495;SDS011;72133;42.522;24.800;2024-01-11T05:11:15;19.90;;;12.32;;
82495;SDS011;72133;42.522;24.800;2024-01-11T05:13:42;18.92;;;11.77;;
82495;SDS011;72133;42.522;24.800;2024-01-11T05:16:15;18.25;;;12.63;;
82495;SDS011;72133;42.522;24.800;2024-01-11T05:18:48;18.98;;;13.27;;
82495;SDS011;72133;42.522;24.800;2024-01-11T05:21:14;22.67;;;16.55;;
82495;SDS011;72133;42.522;24.800;2024-01-11T05:23:42;21.48;;;14.55;;
82495;SDS011;72133;42.522;24.800;2024-01-11T05:26:08;24.40;;;15.07;;
82495;SDS011;72133;42.522;24.800;2024-01-11T05:28:34;24.05;;;13.50;;
82495;SDS011;72133;42.522;24.800;2024-01-11T05:31:00;26.98;;;16.40;;
82495;SDS011;72133;42.522;24.800;2024-01-11T05:33:26;26.15;;;15.25;;
82495;SDS011;72133;42.522;24.800;2024-01-11T05:35:51;21.08;;;14.15;;
82495;SDS011;72133;42.522;24.800;2024-01-11T05:38:18;26.40;;;19.17;;
82495;SDS011;72133;42.522;24.800;2024-01-11T05:40:44;22.67;;;14.05;;
82495;SDS011;72133;42.522;24.800;2024-01-11T05:43:10;19.75;;;11.43;;
82495;SDS011;72133;42.522;24.800;2024-01-11T05:45:36;21.17;;;12.57;;
82495;SDS011;72133;42.522;24.800;2024-01-11T05:48:02;22.02;;;12.88;;
82495;SDS011;72133;42.522;24.800;2024-01-11T05:50:28;23.63;;;17.60;;
82495;SDS011;72133;42.522;24.800;2024-01-11T05:52:53;26.65;;;20.85;;
82495;SDS011;72133;42.522;24.800;2024-01-11T05:55:20;23.40;;;13.73;;
82495;SDS011;72133;42.522;24.800;2024-01-11T05:57:45;18.40;;;13.00;;
82495;SDS011;72133;42.522;24.800;2024-01-11T06:00:11;18.23;;;12.23;;
82495;SDS011;72133;42.522;24.800;2024-01-11T06:02:37;17.95;;;12.05;;
82495;SDS011;72133;42.522;24.800;2024-01-11T06:05:03;20.48;;;11.85;;
82495;SDS011;72133;42.522;24.800;2024-01-11T06:07:29;23.95;;;14.18;;
82495;SDS011;72133;42.522;24.800;2024-01-11T06:09:54;18.63;;;11.88;;
82495;SDS011;72133;42.522;24.800;2024-01-11T06:12:20;28.15;;;17.55;;
82495;SDS011;72133;42.522;24.800;2024-01-11T06:14:46;38.38;;;20.92;;
82495;SDS011;72133;42.522;24.800;2024-01-11T06:17:11;38.03;;;23.08;;
82495;SDS011;72133;42.522;24.800;2024-01-11T06:19:37;22.98;;;13.88;;
82495;SDS011;72133;42.522;24.800;2024-01-11T06:22:03;22.52;;;14.20;;
82495;SDS011;72133;42.522;24.800;2024-01-11T06:24:30;24.05;;;14.68;;
82495;SDS011;72133;42.522;24.800;2024-01-11T06:26:56;24.55;;;15.52;;
82495;SDS011;72133;42.522;24.800;2024-01-11T06:29:21;21.67;;;13.38;;
82495;SDS011;72133;42.522;24.800;2024-01-11T06:31:47;23.73;;;14.48;;
82495;SDS011;72133;42.522;24.800;2024-01-11T06:34:13;18.08;;;12.45;;
82495;SDS011;72133;42.522;24.800;2024-01-11T06:36:38;21.77;;;12.75;;
82495;SDS011;72133;42.522;24.800;2024-01-11T06:39:04;20.40;;;13.95;;
82495;SDS011;72133;42.522;24.800;2024-01-11T06:41:30;21.48;;;11.88;;
82495;SDS011;72133;42.522;24.800;2024-01-11T06:43:56;19.20;;;12.38;;
82495;SDS011;72133;42.522;24.800;2024-01-11T06:46:22;21.77;;;13.82;;
82495;SDS011;72133;42.522;24.800;2024-01-11T06:48:48;23.83;;;14.25;;
82495;SDS011;72133;42.522;24.800;2024-01-11T06:51:20;19.70;;;14.32;;
82495;SDS011;72133;42.522;24.800;2024-01-11T06:53:47;17.98;;;11.60;;
82495;SDS011;72133;42.522;24.800;2024-01-11T06:56:16;21.20;;;12.85;;
82495;SDS011;72133;42.522;24.800;2024-01-11T06:58:44;19.75;;;13.63;;
82495;SDS011;72133;42.522;24.800;2024-01-11T07:01:10;23.05;;;15.75;;
82495;SDS011;72133;42.522;24.800;2024-01-11T07:03:36;29.92;;;20.45;;
82495;SDS011;72133;42.522;24.800;2024-01-11T07:06:03;23.75;;;16.25;;
82495;SDS011;72133;42.522;24.800;2024-01-11T07:08:29;22.17;;;17.42;;
82495;SDS011;72133;42.522;24.800;2024-01-11T07:10:55;40.13;;;26.42;;
82495;SDS011;72133;42.522;24.800;2024-01-11T07:13:22;24.58;;;16.95;;
82495;SDS011;72133;42.522;24.800;2024-01-11T07:15:47;21.95;;;14.95;;
82495;SDS011;72133;42.522;24.800;2024-01-11T07:18:13;20.30;;;14.00;;
82495;SDS011;72133;42.522;24.800;2024-01-11T07:20:39;21.02;;;14.35;;
82495;SDS011;72133;42.522;24.800;2024-01-11T07:23:05;21.67;;;14.38;;
82495;SDS011;72133;42.522;24.800;2024-01-11T07:25:32;26.75;;;21.35;;
82495;SDS011;72133;42.522;24.800;2024-01-11T07:27:59;19.13;;;14.85;;
82495;SDS011;72133;42.522;24.800;2024-01-11T07:30:25;20.48;;;15.70;;
82495;SDS011;72133;42.522;24.800;2024-01-11T07:32:51;20.17;;;16.13;;
82495;SDS011;72133;42.522;24.800;2024-01-11T07:35:17;18.38;;;14.68;;
82495;SDS011;72133;42.522;24.800;2024-01-11T07:37:42;26.85;;;24.05;;
82495;SDS011;72133;42.522;24.800;2024-01-11T07:40:08;18.90;;;14.13;;
82495;SDS011;72133;42.522;24.800;2024-01-11T07:42:38;22.52;;;16.77;;
82495;SDS011;72133;42.522;24.800;2024-01-11T07:45:06;18.42;;;14.77;;
82495;SDS011;72133;42.522;24.800;2024-01-11T07:47:35;20.77;;;14.13;;
82495;SDS011;72133;42.522;24.800;2024-01-11T07:50:07;22.70;;;15.75;;
82495;SDS011;72133;42.522;24.800;2024-01-11T07:52:35;17.90;;;13.27;;
82495;SDS011;72133;42.522;24.800;2024-01-11T07:55:02;17.90;;;13.48;;
82495;SDS011;72133;42.522;24.800;2024-01-11T07:57:33;22.27;;;14.18;;
82495;SDS011;72133;42.522;24.800;2024-01-11T08:00:00;17.15;;;13.02;;
82495;SDS011;72133;42.522;24.800;2024-01-11T08:02:26;19.60;;;13.00;;
82495;SDS011;72133;42.522;24.800;2024-01-11T08:04:52;16.95;;;12.30;;
82495;SDS011;72133;42.522;24.800;2024-01-11T08:07:17;21.00;;;14.23;;
82495;SDS011;72133;42.522;24.800;2024-01-11T08:09:43;17.80;;;13.63;;
82495;SDS011;72133;42.522;24.800;2024-01-11T08:12:11;19.05;;;14.30;;
82495;SDS011;72133;42.522;24.800;2024-01-11T08:14:38;47.33;;;33.72;;
82495;SDS011;72133;42.522;24.800;2024-01-11T08:17:04;33.65;;;23.83;;
82495;SDS011;72133;42.522;24.800;2024-01-11T08:19:33;23.17;;;18.10;;
82495;SDS011;72133;42.522;24.800;2024-01-11T08:21:59;17.42;;;14.57;;
82495;SDS011;72133;42.522;24.800;2024-01-11T08:24:25;15.93;;;12.70;;
82495;SDS011;72133;42.522;24.800;2024-01-11T08:26:51;17.92;;;14.25;;
82495;SDS011;72133;42.522;24.800;2024-01-11T08:29:17;16.92;;;12.68;;
82495;SDS011;72133;42.522;24.800;2024-01-11T08:31:45;25.38;;;22.65;;
82495;SDS011;72133;42.522;24.800;2024-01-11T08:34:11;14.68;;;11.80;;
82495;SDS011;72133;42.522;24.800;2024-01-11T08:36:36;15.27;;;11.82;;
82495;SDS011;72133;42.522;24.800;2024-01-11T08:39:06;16.80;;;12.52;;
82495;SDS011;72133;42.522;24.800;2024-01-11T08:41:33;16.45;;;12.88;;
82495;SDS011;72133;42.522;24.800;2024-01-11T08:44:00;16.70;;;13.27;;
82495;SDS011;72133;42.522;24.800;2024-01-11T08:46:27;16.27;;;13.00;;
82495;SDS011;72133;42.522;24.800;2024-01-11T08:48:56;19.67;;;16.80;;
82495;SDS011;72133;42.522;24.800;2024-01-11T08:51:22;16.75;;;13.18;;
82495;SDS011;72133;42.522;24.800;2024-01-11T08:53:48;15.82;;;12.45;;
82495;SDS011;72133;42.522;24.800;2024-01-11T08:56:13;17.15;;;14.50;;
82495;SDS011;72133;42.522;24.800;2024-01-11T08:58:41;16.45;;;13.85;;
82495;SDS011;72133;42.522;24.800;2024-01-11T09:01:07;18.65;;;14.13;;
82495;SDS011;72133;42.522;24.800;2024-01-11T09:03:35;15.95;;;13.57;;
82495;SDS011;72133;42.522;24.800;2024-01-11T09:06:02;24.58;;;18.02;;
82495;SDS011;72133;42.522;24.800;2024-01-11T09:08:28;16.85;;;14.07;;
82495;SDS011;72133;42.522;24.800;2024-01-11T09:10:55;15.25;;;11.80;;
82495;SDS011;72133;42.522;24.800;2024-01-11T09:13:22;15.68;;;12.27;;
82495;SDS011;72133;42.522;24.800;2024-01-11T09:15:48;14.63;;;11.50;;
82495;SDS011;72133;42.522;24.800;2024-01-11T09:18:14;13.95;;;11.43;;
82495;SDS011;72133;42.522;24.800;2024-01-11T09:20:41;14.90;;;11.57;;
82495;SDS011;72133;42.522;24.800;2024-01-11T09:23:06;14.70;;;11.93;;
82495;SDS011;72133;42.522;24.800;2024-01-11T09:25:32;16.02;;;11.52;;
82495;SDS011;72133;42.522;24.800;2024-01-11T09:27:58;14.40;;;12.02;;
82495;SDS011;72133;42.522;24.800;2024-01-11T09:30:24;16.65;;;12.38;;
82495;SDS011;72133;42.522;24.800;2024-01-11T09:32:50;16.15;;;12.77;;
82495;SDS011;72133;42.522;24.800;2024-01-11T09:35:15;16.60;;;14.02;;
82495;SDS011;72133;42.522;24.800;2024-01-11T09:37:41;15.18;;;13.18;;
82495;SDS011;72133;42.522;24.800;2024-01-11T09:40:08;15.80;;;13.57;;
82495;SDS011;72133;42.522;24.800;2024-01-11T09:42:36;18.15;;;14.15;;
82495;SDS011;72133;42.522;24.800;2024-01-11T09:45:02;20.63;;;15.80;;
82495;SDS011;72133;42.522;24.800;2024-01-11T09:47:37;19.15;;;15.43;;
82495;SDS011;72133;42.522;24.800;2024-01-11T09:50:04;21.08;;;16.20;;
82495;SDS011;72133;42.522;24.800;2024-01-11T09:52:30;21.67;;;15.90;;
82495;SDS011;72133;42.522;24.800;2024-01-11T09:54:59;20.23;;;15.95;;
82495;SDS011;72133;42.522;24.800;2024-01-11T09:57:29;21.33;;;17.15;;
82495;SDS011;72133;42.522;24.800;2024-01-11T09:59:58;18.52;;;15.38;;
82495;SDS011;72133;42.522;24.800;2024-01-11T10:02:24;20.38;;;15.05;;
82495;SDS011;72133;42.522;24.800;2024-01-11T10:04:53;23.88;;;18.10;;
82495;SDS011;72133;42.522;24.800;2024-01-11T10:07:21;19.13;;;14.80;;
82495;SDS011;72133;42.522;24.800;2024-01-11T10:09:48;19.60;;;14.85;;
82495;SDS011;72133;42.522;24.800;2024-01-11T10:12:15;19.27;;;14.38;;
82495;SDS011;72133;42.522;24.800;2024-01-11T10:14:42;21.42;;;14.93;;
82495;SDS011;72133;42.522;24.800;2024-01-11T10:17:08;19.15;;;14.50;;
82495;SDS011;72133;42.522;24.800;2024-01-11T10:19:33;16.80;;;14.15;;
82495;SDS011;72133;42.522;24.800;2024-01-11T10:21:59;20.20;;;15.57;;
82495;SDS011;72133;42.522;24.800;2024-01-11T10:24:25;16.35;;;11.85;;
82495;SDS011;72133;42.522;24.800;2024-01-11T10:26:52;14.20;;;11.48;;
82495;SDS011;72133;42.522;24.800;2024-01-11T10:29:21;15.90;;;11.45;;
82495;SDS011;72133;42.522;24.800;2024-01-11T10:31:47;14.95;;;11.57;;
82495;SDS011;72133;42.522;24.800;2024-01-11T10:34:13;17.77;;;12.43;;
82495;SDS011;72133;42.522;24.800;2024-01-11T10:36:38;16.08;;;12.40;;
82495;SDS011;72133;42.522;24.800;2024-01-11T10:39:06;13.55;;;9.63;;
82495;SDS011;72133;42.522;24.800;2024-01-11T10:41:39;12.13;;;9.85;;
82495;SDS011;72133;42.522;24.800;2024-01-11T10:44:16;12.40;;;9.27;;
82495;SDS011;72133;42.522;24.800;2024-01-11T10:46:47;14.27;;;10.48;;
82495;SDS011;72133;42.522;24.800;2024-01-11T10:49:19;13.60;;;10.13;;
82495;SDS011;72133;42.522;24.800;2024-01-11T10:51:45;10.88;;;8.02;;
82495;SDS011;72133;42.522;24.800;2024-01-11T10:54:17;9.70;;;7.32;;
82495;SDS011;72133;42.522;24.800;2024-01-11T10:56:45;12.70;;;9.15;;
82495;SDS011;72133;42.522;24.800;2024-01-11T10:59:11;12.63;;;8.48;;
82495;SDS011;72133;42.522;24.800;2024-01-11T11:01:37;12.45;;;9.43;;
82495;SDS011;72133;42.522;24.800;2024-01-11T11:04:04;12.75;;;8.80;;
82495;SDS011;72133;42.522;24.800;2024-01-11T11:06:32;30.92;;;17.50;;
82495;SDS011;72133;42.522;24.800;2024-01-11T11:09:00;13.25;;;9.43;;
82495;SDS011;72133;42.522;24.800;2024-01-11T11:11:30;14.05;;;8.68;;
82495;SDS011;72133;42.522;24.800;2024-01-11T11:13:57;10.57;;;7.47;;
82495;SDS011;72133;42.522;24.800;2024-01-11T11:16:24;11.25;;;8.00;;
82495;SDS011;72133;42.522;24.800;2024-01-11T11:18:52;10.52;;;8.10;;
82495;SDS011;72133;42.522;24.800;2024-01-11T11:21:19;10.85;;;7.72;;
82495;SDS011;72133;42.522;24.800;2024-01-11T11:23:46;10.02;;;7.20;;
82495;SDS011;72133;42.522;24.800;2024-01-11T11:26:18;14.13;;;7.97;;
82495;SDS011;72133;42.522;24.800;2024-01-11T11:28:44;11.02;;;8.23;;
82495;SDS011;72133;42.522;24.800;2024-01-11T11:31:13;11.10;;;7.88;;
82495;SDS011;72133;42.522;24.800;2024-01-11T11:33:38;13.20;;;8.35;;
82495;SDS011;72133;42.522;24.800;2024-01-11T11:36:06;11.18;;;8.00;;
82495;SDS011;72133;42.522;24.800;2024-01-11T11:38:39;11.82;;;8.35;;
82495;SDS011;72133;42.522;24.800;2024-01-11T11:41:04;13.13;;;9.45;;
82495;SDS011;72133;42.522;24.800;2024-01-11T11:43:30;16.98;;;11.95;;
82495;SDS011;72133;42.522;24.800;2024-01-11T11:45:56;16.83;;;12.20;;
82495;SDS011;72133;42.522;24.800;2024-01-11T11:51:10;27.83;;;22.75;;
82495;SDS011;72133;42.522;24.800;2024-01-11T11:53:37;24.67;;;17.13;;
82495;SDS011;72133;42.522;24.800;2024-01-11T11:56:03;18.10;;;13.80;;
82495;SDS011;72133;42.522;24.800;2024-01-11T11:58:29;14.27;;;10.98;;
82495;SDS011;72133;42.522;24.800;2024-01-11T12:00:57;14.27;;;10.35;;
82495;SDS011;72133;42.522;24.800;2024-01-11T12:05:55;15.07;;;11.27;;
82495;SDS011;72133;42.522;24.800;2024-01-11T12:08:22;13.38;;;8.85;;
82495;SDS011;72133;42.522;24.800;2024-01-11T12:10:48;24.00;;;17.00;;
82495;SDS011;72133;42.522;24.800;2024-01-11T12:13:14;17.88;;;13.23;;
82495;SDS011;72133;42.522;24.800;2024-01-11T12:15:40;14.23;;;9.88;;
82495;SDS011;72133;42.522;24.800;2024-01-11T12:18:06;15.85;;;12.27;;
82495;SDS011;72133;42.522;24.800;2024-01-11T12:20:32;16.10;;;12.23;;
82495;SDS011;72133;42.522;24.800;2024-01-11T12:22:58;13.63;;;10.63;;
82495;SDS011;72133;42.522;24.800;2024-01-11T12:25:24;15.13;;;10.52;;
82495;SDS011;72133;42.522;24.800;2024-01-11T12:27:50;12.43;;;9.60;;
82495;SDS011;72133;42.522;24.800;2024-01-11T12:30:17;11.32;;;8.45;;
82495;SDS011;72133;42.522;24.800;2024-01-11T12:32:43;13.70;;;8.43;;
82495;SDS011;72133;42.522;24.800;2024-01-11T12:35:09;11.68;;;9.07;;
82495;SDS011;72133;42.522;24.800;2024-01-11T12:37:35;13.13;;;8.70;;
82495;SDS011;72133;42.522;24.800;2024-01-11T12:40:01;12.70;;;8.55;;
82495;SDS011;72133;42.522;24.800;2024-01-11T12:42:27;11.35;;;7.72;;
82495;SDS011;72133;42.522;24.800;2024-01-11T12:44:53;11.50;;;8.25;;
82495;SDS011;72133;42.522;24.800;2024-01-11T12:47:19;9.77;;;7.00;;
82495;SDS011;72133;42.522;24.800;2024-01-11T12:49:47;10.88;;;7.93;;
82495;SDS011;72133;42.522;24.800;2024-01-11T12:52:19;10.77;;;7.28;;
82495;SDS011;72133;42.522;24.800;2024-01-11T12:54:44;10.18;;;7.35;;
82495;SDS011;72133;42.522;24.800;2024-01-11T12:57:20;11.48;;;8.00;;
82495;SDS011;72133;42.522;24.800;2024-01-11T12:59:46;12.67;;;8.80;;
82495;SDS011;72133;42.522;24.800;2024-01-11T13:02:12;19.35;;;13.18;;
82495;SDS011;72133;42.522;24.800;2024-01-11T13:04:42;13.75;;;9.40;;
82495;SDS011;72133;42.522;24.800;2024-01-11T13:07:09;11.75;;;8.32;;
82495;SDS011;72133;42.522;24.800;2024-01-11T13:09:36;11.85;;;8.60;;
82495;SDS011;72133;42.522;24.800;2024-01-11T13:12:02;16.23;;;10.20;;
82495;SDS011;72133;42.522;24.800;2024-01-11T13:14:28;24.55;;;16.33;;
82495;SDS011;72133;42.522;24.800;2024-01-11T13:16:54;16.52;;;10.57;;
82495;SDS011;72133;42.522;24.800;2024-01-11T13:19:20;12.20;;;7.93;;
82495;SDS011;72133;42.522;24.800;2024-01-11T13:21:45;11.40;;;8.60;;
82495;SDS011;72133;42.522;24.800;2024-01-11T13:24:11;16.90;;;11.27;;
82495;SDS011;72133;42.522;24.800;2024-01-11T13:26:38;21.38;;;15.48;;
82495;SDS011;72133;42.522;24.800;2024-01-11T13:29:07;44.58;;;19.50;;
82495;SDS011;72133;42.522;24.800;2024-01-11T13:31:32;81.50;;;32.47;;
82495;SDS011;72133;42.522;24.800;2024-01-11T13:33:58;45.80;;;20.33;;
82495;SDS011;72133;42.522;24.800;2024-01-11T13:36:24;26.65;;;12.32;;
82495;SDS011;72133;42.522;24.800;2024-01-11T13:38:50;56.58;;;29.33;;
82495;SDS011;72133;42.522;24.800;2024-01-11T13:41:16;15.73;;;10.10;;
82495;SDS011;72133;42.522;24.800;2024-01-11T13:43:42;24.55;;;15.23;;
82495;SDS011;72133;42.522;24.800;2024-01-11T13:46:08;15.82;;;8.27;;
82495;SDS011;72133;42.522;24.800;2024-01-11T13:48:37;12.25;;;7.95;;
82495;SDS011;72133;42.522;24.800;2024-01-11T13:51:03;12.10;;;8.18;;
82495;SDS011;72133;42.522;24.800;2024-01-11T13:53:29;9.93;;;7.93;;
82495;SDS011;72133;42.522;24.800;2024-01-11T13:55:56;13.20;;;7.68;;
82495;SDS011;72133;42.522;24.800;2024-01-11T13:58:22;11.73;;;8.05;;
82495;SDS011;72133;42.522;24.800;2024-01-11T14:00:48;12.05;;;8.27;;
82495;SDS011;72133;42.522;24.800;2024-01-11T14:03:13;10.85;;;7.57;;
82495;SDS011;72133;42.522;24.800;2024-01-11T14:05:39;9.02;;;6.50;;
82495;SDS011;72133;42.522;24.800;2024-01-11T14:08:05;10.40;;;7.28;;
82495;SDS011;72133;42.522;24.800;2024-01-11T14:10:32;9.25;;;6.53;;
82495;SDS011;72133;42.522;24.800;2024-01-11T14:13:01;9.73;;;6.65;;